sensor_id;sensor_type;location;lat;lon;timestamp;temperature;humidity
22765;DHT22;11549;50.852;3.816;2023-07-31T00:01:28;18.00;99.90
22765;DHT22;11549;50.852;3.816;2023-07-31T00:03:56;17.90;99.90
22765;DHT22;11549;50.852;3.816;2023-07-31T00:06:25;17.90;99.90
22765;DHT22;11549;50.852;3.816;2023-07-31T00:08:53;17.90;99.90
22765;DHT22;11549;50.852;3.816;2023-07-31T00:11:23;17.90;99.90
22765;DHT22;11549;50.852;3.816;2023-07-31T00:13:53;17.90;99.90
22765;DHT22;11549;50.852;3.816;2023-07-31T00:16:21;17.90;99.90
22765;DHT22;11549;50.852;3.816;2023-07-31T00:18:49;18.00;99.90
22765;DHT22;11549;50.852;3.816;2023-07-31T00:21:18;18.00;99.90
22765;DHT22;11549;50.852;3.816;2023-07-31T00:23:46;18.00;99.90
22765;DHT22;11549;50.852;3.816;2023-07-31T00:26:15;18.00;99.90
22765;DHT22;11549;50.852;3.816;2023-07-31T00:28:45;18.00;99.90
22765;DHT22;11549;50.852;3.816;2023-07-31T00:31:13;17.90;99.90
22765;DHT22;11549;50.852;3.816;2023-07-31T00:33:41;18.00;99.90
22765;DHT22;11549;50.852;3.816;2023-07-31T00:36:10;17.90;99.90
22765;DHT22;11549;50.852;3.816;2023-07-31T00:38:38;17.90;99.90
22765;DHT22;11549;50.852;3.816;2023-07-31T00:41:06;17.90;99.90
22765;DHT22;11549;50.852;3.816;2023-07-31T00:43:35;17.90;99.90
22765;DHT22;11549;50.852;3.816;2023-07-31T00:46:05;18.00;99.90
22765;DHT22;11549;50.852;3.816;2023-07-31T00:48:34;18.10;99.90
22765;DHT22;11549;50.852;3.816;2023-07-31T00:51:03;18.00;99.90
22765;DHT22;11549;50.852;3.816;2023-07-31T00:53:32;18.10;99.90
22765;DHT22;11549;50.852;3.816;2023-07-31T00:56:00;17.90;99.90
22765;DHT22;11549;50.852;3.816;2023-07-31T00:58:28;18.00;99.90
22765;DHT22;11549;50.852;3.816;2023-07-31T01:00:57;18.00;99.90
22765;DHT22;11549;50.852;3.816;2023-07-31T01:03:26;18.00;99.90
22765;DHT22;11549;50.852;3.816;2023-07-31T01:06:06;18.10;99.90
22765;DHT22;11549;50.852;3.816;2023-07-31T01:08:41;18.10;99.90
22765;DHT22;11549;50.852;3.816;2023-07-31T01:11:14;17.90;99.90
22765;DHT22;11549;50.852;3.816;2023-07-31T01:13:44;18.00;99.90
22765;DHT22;11549;50.852;3.816;2023-07-31T01:16:13;18.00;99.90
22765;DHT22;11549;50.852;3.816;2023-07-31T01:18:43;18.00;99.90
22765;DHT22;11549;50.852;3.816;2023-07-31T01:21:26;18.00;99.90
22765;DHT22;11549;50.852;3.816;2023-07-31T01:24:17;18.10;99.90
22765;DHT22;11549;50.852;3.816;2023-07-31T01:26:53;18.10;99.90
22765;DHT22;11549;50.852;3.816;2023-07-31T01:29:29;18.10;99.90
22765;DHT22;11549;50.852;3.816;2023-07-31T01:32:01;18.00;99.90
22765;DHT22;11549;50.852;3.816;2023-07-31T01:34:31;18.00;99.90
22765;DHT22;11549;50.852;3.816;2023-07-31T01:37:00;18.10;99.90
22765;DHT22;11549;50.852;3.816;2023-07-31T01:39:28;18.10;99.90
22765;DHT22;11549;50.852;3.816;2023-07-31T01:41:58;18.10;99.90
22765;DHT22;11549;50.852;3.816;2023-07-31T01:44:27;18.00;99.90
22765;DHT22;11549;50.852;3.816;2023-07-31T01:46:55;17.90;99.90
22765;DHT22;11549;50.852;3.816;2023-07-31T01:49:26;17.90;99.90
22765;DHT22;11549;50.852;3.816;2023-07-31T01:51:54;18.00;99.90
22765;DHT22;11549;50.852;3.816;2023-07-31T01:54:22;18.00;99.90
22765;DHT22;11549;50.852;3.816;2023-07-31T01:56:51;18.10;99.90
22765;DHT22;11549;50.852;3.816;2023-07-31T01:59:20;18.10;99.90
22765;DHT22;11549;50.852;3.816;2023-07-31T02:01:49;18.00;99.90
22765;DHT22;11549;50.852;3.816;2023-07-31T02:04:20;18.00;99.90
22765;DHT22;11549;50.852;3.816;2023-07-31T02:06:49;18.00;99.90
22765;DHT22;11549;50.852;3.816;2023-07-31T02:09:17;18.00;99.90
22765;DHT22;11549;50.852;3.816;2023-07-31T02:11:46;18.00;99.90
22765;DHT22;11549;50.852;3.816;2023-07-31T02:14:14;18.10;99.90
22765;DHT22;11549;50.852;3.816;2023-07-31T02:16:44;18.10;99.90
22765;DHT22;11549;50.852;3.816;2023-07-31T02:19:12;18.00;99.90
22765;DHT22;11549;50.852;3.816;2023-07-31T02:21:41;18.00;99.90
22765;DHT22;11549;50.852;3.816;2023-07-31T02:24:11;18.00;99.90
22765;DHT22;11549;50.852;3.816;2023-07-31T02:26:39;18.00;99.90
22765;DHT22;11549;50.852;3.816;2023-07-31T02:29:09;17.90;99.90
22765;DHT22;11549;50.852;3.816;2023-07-31T02:31:37;18.10;99.90
22765;DHT22;11549;50.852;3.816;2023-07-31T02:34:07;18.10;99.90
22765;DHT22;11549;50.852;3.816;2023-07-31T02:36:35;18.00;99.90
22765;DHT22;11549;50.852;3.816;2023-07-31T02:39:04;18.00;99.90
22765;DHT22;11549;50.852;3.816;2023-07-31T02:41:33;18.00;99.90
22765;DHT22;11549;50.852;3.816;2023-07-31T02:44:01;18.00;99.90
22765;DHT22;11549;50.852;3.816;2023-07-31T02:46:30;18.00;99.90
22765;DHT22;11549;50.852;3.816;2023-07-31T02:48:58;18.10;99.90
22765;DHT22;11549;50.852;3.816;2023-07-31T02:51:28;18.10;99.90
22765;DHT22;11549;50.852;3.816;2023-07-31T02:53:57;18.10;99.90
22765;DHT22;11549;50.852;3.816;2023-07-31T02:56:25;18.00;99.90
22765;DHT22;11549;50.852;3.816;2023-07-31T02:58:54;17.90;99.90
22765;DHT22;11549;50.852;3.816;2023-07-31T03:01:22;17.90;99.90
22765;DHT22;11549;50.852;3.816;2023-07-31T03:03:51;17.90;99.90
22765;DHT22;11549;50.852;3.816;2023-07-31T03:06:19;17.90;99.90
22765;DHT22;11549;50.852;3.816;2023-07-31T03:08:49;17.90;99.90
22765;DHT22;11549;50.852;3.816;2023-07-31T03:11:18;18.00;99.90
22765;DHT22;11549;50.852;3.816;2023-07-31T03:13:46;18.10;99.90
22765;DHT22;11549;50.852;3.816;2023-07-31T03:16:14;18.00;99.90
22765;DHT22;11549;50.852;3.816;2023-07-31T03:18:43;17.90;99.90
22765;DHT22;11549;50.852;3.816;2023-07-31T03:21:11;17.90;99.90
22765;DHT22;11549;50.852;3.816;2023-07-31T03:23:40;17.90;99.90
22765;DHT22;11549;50.852;3.816;2023-07-31T03:26:12;18.00;99.90
22765;DHT22;11549;50.852;3.816;2023-07-31T03:28:40;17.90;99.90
22765;DHT22;11549;50.852;3.816;2023-07-31T03:31:08;17.90;99.90
22765;DHT22;11549;50.852;3.816;2023-07-31T03:33:38;17.90;99.90
22765;DHT22;11549;50.852;3.816;2023-07-31T03:36:07;17.90;99.90
22765;DHT22;11549;50.852;3.816;2023-07-31T03:38:35;17.80;99.90
22765;DHT22;11549;50.852;3.816;2023-07-31T03:41:03;17.80;99.90
22765;DHT22;11549;50.852;3.816;2023-07-31T03:43:34;17.80;99.90
22765;DHT22;11549;50.852;3.816;2023-07-31T03:46:03;17.80;99.90
22765;DHT22;11549;50.852;3.816;2023-07-31T03:48:31;17.70;99.90
22765;DHT22;11549;50.852;3.816;2023-07-31T03:51:00;17.70;99.90
22765;DHT22;11549;50.852;3.816;2023-07-31T03:53:28;17.70;99.90
22765;DHT22;11549;50.852;3.816;2023-07-31T03:55:57;17.80;99.90
22765;DHT22;11549;50.852;3.816;2023-07-31T03:58:25;17.80;99.90
22765;DHT22;11549;50.852;3.816;2023-07-31T04:00:55;17.80;99.90
22765;DHT22;11549;50.852;3.816;2023-07-31T04:03:24;17.70;99.90
22765;DHT22;11549;50.852;3.816;2023-07-31T04:05:54;17.70;99.90
22765;DHT22;11549;50.852;3.816;2023-07-31T04:08:23;17.60;99.90
22765;DHT22;11549;50.852;3.816;2023-07-31T04:10:51;17.70;99.90
22765;DHT22;11549;50.852;3.816;2023-07-31T04:13:21;17.70;99.90
22765;DHT22;11549;50.852;3.816;2023-07-31T04:15:49;17.70;99.90
22765;DHT22;11549;50.852;3.816;2023-07-31T04:18:20;17.70;99.90
22765;DHT22;11549;50.852;3.816;2023-07-31T04:20:48;17.70;99.90
22765;DHT22;11549;50.852;3.816;2023-07-31T04:23:16;17.60;99.90
22765;DHT22;11549;50.852;3.816;2023-07-31T04:25:45;17.70;99.90
22765;DHT22;11549;50.852;3.816;2023-07-31T04:28:13;17.70;99.90
22765;DHT22;11549;50.852;3.816;2023-07-31T04:30:41;17.70;99.90
22765;DHT22;11549;50.852;3.816;2023-07-31T04:33:10;17.70;99.90
22765;DHT22;11549;50.852;3.816;2023-07-31T04:35:40;17.70;99.90
22765;DHT22;11549;50.852;3.816;2023-07-31T04:38:08;17.70;99.90
22765;DHT22;11549;50.852;3.816;2023-07-31T04:40:37;17.70;99.90
22765;DHT22;11549;50.852;3.816;2023-07-31T04:43:05;17.70;99.90
22765;DHT22;11549;50.852;3.816;2023-07-31T04:45:33;17.70;99.90
22765;DHT22;11549;50.852;3.816;2023-07-31T04:48:02;17.60;99.90
22765;DHT22;11549;50.852;3.816;2023-07-31T04:50:30;17.60;99.90
22765;DHT22;11549;50.852;3.816;2023-07-31T04:53:00;17.60;99.90
22765;DHT22;11549;50.852;3.816;2023-07-31T04:55:29;17.70;99.90
22765;DHT22;11549;50.852;3.816;2023-07-31T04:57:58;17.60;99.90
22765;DHT22;11549;50.852;3.816;2023-07-31T05:00:26;17.60;99.90
22765;DHT22;11549;50.852;3.816;2023-07-31T05:02:55;17.70;99.90
22765;DHT22;11549;50.852;3.816;2023-07-31T05:05:23;17.60;99.90
22765;DHT22;11549;50.852;3.816;2023-07-31T05:07:52;17.60;99.90
22765;DHT22;11549;50.852;3.816;2023-07-31T05:10:22;17.60;99.90
22765;DHT22;11549;50.852;3.816;2023-07-31T05:12:50;17.60;99.90
22765;DHT22;11549;50.852;3.816;2023-07-31T05:15:18;17.60;99.90
22765;DHT22;11549;50.852;3.816;2023-07-31T05:17:46;17.60;99.90
22765;DHT22;11549;50.852;3.816;2023-07-31T05:20:15;17.50;99.90
22765;DHT22;11549;50.852;3.816;2023-07-31T05:22:43;17.50;99.90
22765;DHT22;11549;50.852;3.816;2023-07-31T05:25:12;17.50;99.90
22765;DHT22;11549;50.852;3.816;2023-07-31T05:27:42;17.50;99.90
22765;DHT22;11549;50.852;3.816;2023-07-31T05:30:10;17.50;99.90
22765;DHT22;11549;50.852;3.816;2023-07-31T05:32:38;17.60;99.90
22765;DHT22;11549;50.852;3.816;2023-07-31T05:35:07;17.50;99.90
22765;DHT22;11549;50.852;3.816;2023-07-31T05:37:36;17.50;99.90
22765;DHT22;11549;50.852;3.816;2023-07-31T05:40:05;17.50;99.90
22765;DHT22;11549;50.852;3.816;2023-07-31T05:42:34;17.40;99.90
22765;DHT22;11549;50.852;3.816;2023-07-31T05:45:07;17.40;99.90
22765;DHT22;11549;50.852;3.816;2023-07-31T05:47:35;17.50;99.90
22765;DHT22;11549;50.852;3.816;2023-07-31T05:50:04;17.50;99.90
22765;DHT22;11549;50.852;3.816;2023-07-31T05:52:32;17.50;99.90
22765;DHT22;11549;50.852;3.816;2023-07-31T05:55:01;17.60;99.90
22765;DHT22;11549;50.852;3.816;2023-07-31T05:57:30;17.60;99.90
22765;DHT22;11549;50.852;3.816;2023-07-31T05:59:58;17.60;99.90
22765;DHT22;11549;50.852;3.816;2023-07-31T06:02:29;17.60;99.90
22765;DHT22;11549;50.852;3.816;2023-07-31T06:05:00;17.60;99.90
22765;DHT22;11549;50.852;3.816;2023-07-31T06:07:28;17.60;99.90
22765;DHT22;11549;50.852;3.816;2023-07-31T06:09:56;17.60;99.90
22765;DHT22;11549;50.852;3.816;2023-07-31T06:12:30;17.60;99.90
22765;DHT22;11549;50.852;3.816;2023-07-31T06:14:58;17.60;99.90
22765;DHT22;11549;50.852;3.816;2023-07-31T06:17:28;17.60;99.90
22765;DHT22;11549;50.852;3.816;2023-07-31T06:19:57;17.70;99.90
22765;DHT22;11549;50.852;3.816;2023-07-31T06:22:25;17.80;99.90
22765;DHT22;11549;50.852;3.816;2023-07-31T06:24:54;17.80;99.90
22765;DHT22;11549;50.852;3.816;2023-07-31T06:27:22;17.90;99.90
22765;DHT22;11549;50.852;3.816;2023-07-31T06:29:51;17.80;99.90
22765;DHT22;11549;50.852;3.816;2023-07-31T06:32:19;17.90;99.90
22765;DHT22;11549;50.852;3.816;2023-07-31T06:34:49;17.90;99.90
22765;DHT22;11549;50.852;3.816;2023-07-31T06:37:18;18.00;99.90
22765;DHT22;11549;50.852;3.816;2023-07-31T06:39:46;18.00;99.90
22765;DHT22;11549;50.852;3.816;2023-07-31T06:42:15;18.00;99.90
22765;DHT22;11549;50.852;3.816;2023-07-31T06:44:43;18.10;99.90
22765;DHT22;11549;50.852;3.816;2023-07-31T06:47:12;18.10;99.90
22765;DHT22;11549;50.852;3.816;2023-07-31T06:49:40;18.20;99.90
22765;DHT22;11549;50.852;3.816;2023-07-31T06:52:10;18.20;99.90
22765;DHT22;11549;50.852;3.816;2023-07-31T06:54:39;18.30;99.90
22765;DHT22;11549;50.852;3.816;2023-07-31T06:57:07;18.30;99.90
22765;DHT22;11549;50.852;3.816;2023-07-31T06:59:36;18.30;99.90
22765;DHT22;11549;50.852;3.816;2023-07-31T07:02:05;18.50;99.90
22765;DHT22;11549;50.852;3.816;2023-07-31T07:04:33;18.50;99.90
22765;DHT22;11549;50.852;3.816;2023-07-31T07:07:02;18.60;99.90
22765;DHT22;11549;50.852;3.816;2023-07-31T07:09:32;18.50;99.90
22765;DHT22;11549;50.852;3.816;2023-07-31T07:12:01;18.40;99.90
22765;DHT22;11549;50.852;3.816;2023-07-31T07:14:29;18.40;99.90
22765;DHT22;11549;50.852;3.816;2023-07-31T07:16:57;18.30;99.90
22765;DHT22;11549;50.852;3.816;2023-07-31T07:19:26;18.30;99.90
22765;DHT22;11549;50.852;3.816;2023-07-31T07:21:54;18.40;99.90
22765;DHT22;11549;50.852;3.816;2023-07-31T07:24:23;18.40;99.90
22765;DHT22;11549;50.852;3.816;2023-07-31T07:26:53;18.50;99.90
22765;DHT22;11549;50.852;3.816;2023-07-31T07:29:21;18.50;99.90
22765;DHT22;11549;50.852;3.816;2023-07-31T07:31:49;18.50;99.90
22765;DHT22;11549;50.852;3.816;2023-07-31T07:34:18;18.50;99.90
22765;DHT22;11549;50.852;3.816;2023-07-31T07:36:46;18.50;99.90
22765;DHT22;11549;50.852;3.816;2023-07-31T07:39:14;18.50;99.90
22765;DHT22;11549;50.852;3.816;2023-07-31T07:41:43;18.60;99.90
22765;DHT22;11549;50.852;3.816;2023-07-31T07:44:13;18.60;99.90
22765;DHT22;11549;50.852;3.816;2023-07-31T07:46:42;18.60;99.90
22765;DHT22;11549;50.852;3.816;2023-07-31T07:49:10;18.70;99.90
22765;DHT22;11549;50.852;3.816;2023-07-31T07:51:39;18.70;99.90
22765;DHT22;11549;50.852;3.816;2023-07-31T07:54:08;18.80;99.90
22765;DHT22;11549;50.852;3.816;2023-07-31T07:56:36;18.80;99.90
22765;DHT22;11549;50.852;3.816;2023-07-31T07:59:05;18.80;99.90
22765;DHT22;11549;50.852;3.816;2023-07-31T08:01:35;18.90;99.90
22765;DHT22;11549;50.852;3.816;2023-07-31T08:04:04;18.90;99.90
22765;DHT22;11549;50.852;3.816;2023-07-31T08:06:32;19.00;99.90
22765;DHT22;11549;50.852;3.816;2023-07-31T08:09:00;19.10;99.90
22765;DHT22;11549;50.852;3.816;2023-07-31T08:11:32;19.00;99.90
22765;DHT22;11549;50.852;3.816;2023-07-31T08:14:00;19.00;99.90
22765;DHT22;11549;50.852;3.816;2023-07-31T08:16:29;19.10;99.90
22765;DHT22;11549;50.852;3.816;2023-07-31T08:18:59;19.20;99.90
22765;DHT22;11549;50.852;3.816;2023-07-31T08:21:28;19.30;99.90
22765;DHT22;11549;50.852;3.816;2023-07-31T08:23:56;19.40;99.90
22765;DHT22;11549;50.852;3.816;2023-07-31T08:26:25;19.40;99.90
22765;DHT22;11549;50.852;3.816;2023-07-31T08:28:53;19.40;99.90
22765;DHT22;11549;50.852;3.816;2023-07-31T08:31:21;19.50;99.90
22765;DHT22;11549;50.852;3.816;2023-07-31T08:33:50;19.40;99.90
22765;DHT22;11549;50.852;3.816;2023-07-31T08:36:20;19.40;99.90
22765;DHT22;11549;50.852;3.816;2023-07-31T08:38:48;19.40;99.90
22765;DHT22;11549;50.852;3.816;2023-07-31T08:41:17;19.30;99.90
22765;DHT22;11549;50.852;3.816;2023-07-31T08:43:46;19.30;99.90
22765;DHT22;11549;50.852;3.816;2023-07-31T08:46:14;19.20;99.90
22765;DHT22;11549;50.852;3.816;2023-07-31T08:48:43;19.20;99.90
22765;DHT22;11549;50.852;3.816;2023-07-31T08:51:14;19.20;99.90
22765;DHT22;11549;50.852;3.816;2023-07-31T08:53:44;19.30;99.90
22765;DHT22;11549;50.852;3.816;2023-07-31T08:56:13;19.30;99.90
22765;DHT22;11549;50.852;3.816;2023-07-31T08:58:44;19.30;99.90
22765;DHT22;11549;50.852;3.816;2023-07-31T09:01:15;19.40;99.90
22765;DHT22;11549;50.852;3.816;2023-07-31T09:03:44;19.50;99.90
22765;DHT22;11549;50.852;3.816;2023-07-31T09:06:14;19.60;99.90
22765;DHT22;11549;50.852;3.816;2023-07-31T09:08:45;19.70;99.90
22765;DHT22;11549;50.852;3.816;2023-07-31T09:11:13;19.50;99.90
22765;DHT22;11549;50.852;3.816;2023-07-31T09:13:42;19.50;99.90
22765;DHT22;11549;50.852;3.816;2023-07-31T09:16:12;19.30;99.90
22765;DHT22;11549;50.852;3.816;2023-07-31T09:18:56;19.40;99.90
22765;DHT22;11549;50.852;3.816;2023-07-31T09:21:25;19.30;99.90
22765;DHT22;11549;50.852;3.816;2023-07-31T09:23:57;19.20;99.90
22765;DHT22;11549;50.852;3.816;2023-07-31T09:26:32;19.30;99.90
22765;DHT22;11549;50.852;3.816;2023-07-31T09:29:04;19.30;99.90
22765;DHT22;11549;50.852;3.816;2023-07-31T09:31:39;19.20;99.90
22765;DHT22;11549;50.852;3.816;2023-07-31T09:34:09;19.30;99.90
22765;DHT22;11549;50.852;3.816;2023-07-31T09:36:40;19.20;99.90
22765;DHT22;11549;50.852;3.816;2023-07-31T09:39:11;19.30;99.90
22765;DHT22;11549;50.852;3.816;2023-07-31T09:41:42;19.40;99.90
22765;DHT22;11549;50.852;3.816;2023-07-31T09:44:11;19.40;99.90
22765;DHT22;11549;50.852;3.816;2023-07-31T09:46:39;19.40;99.90
22765;DHT22;11549;50.852;3.816;2023-07-31T09:49:09;19.40;99.90
22765;DHT22;11549;50.852;3.816;2023-07-31T09:51:40;19.30;99.90
22765;DHT22;11549;50.852;3.816;2023-07-31T09:54:14;19.40;99.90
22765;DHT22;11549;50.852;3.816;2023-07-31T09:56:44;19.30;99.90
22765;DHT22;11549;50.852;3.816;2023-07-31T09:59:14;19.30;99.90
22765;DHT22;11549;50.852;3.816;2023-07-31T10:01:45;19.40;99.90
22765;DHT22;11549;50.852;3.816;2023-07-31T10:04:14;19.40;99.90
22765;DHT22;11549;50.852;3.816;2023-07-31T10:06:44;19.50;99.90
22765;DHT22;11549;50.852;3.816;2023-07-31T10:09:16;19.50;99.90
22765;DHT22;11549;50.852;3.816;2023-07-31T10:11:50;19.60;99.90
22765;DHT22;11549;50.852;3.816;2023-07-31T10:14:24;19.70;99.90
22765;DHT22;11549;50.852;3.816;2023-07-31T10:16:54;19.70;99.90
22765;DHT22;11549;50.852;3.816;2023-07-31T10:19:23;19.70;99.90
22765;DHT22;11549;50.852;3.816;2023-07-31T10:21:51;19.80;99.90
22765;DHT22;11549;50.852;3.816;2023-07-31T10:24:22;19.80;99.90
22765;DHT22;11549;50.852;3.816;2023-07-31T10:26:52;19.90;99.90
22765;DHT22;11549;50.852;3.816;2023-07-31T10:29:22;20.00;99.90
22765;DHT22;11549;50.852;3.816;2023-07-31T10:31:52;20.10;99.90
22765;DHT22;11549;50.852;3.816;2023-07-31T10:34:20;20.10;99.90
22765;DHT22;11549;50.852;3.816;2023-07-31T10:36:48;20.20;99.90
22765;DHT22;11549;50.852;3.816;2023-07-31T10:39:37;20.30;99.90
22765;DHT22;11549;50.852;3.816;2023-07-31T10:42:10;20.50;99.90
22765;DHT22;11549;50.852;3.816;2023-07-31T10:44:43;20.40;99.90
22765;DHT22;11549;50.852;3.816;2023-07-31T10:47:14;20.50;99.90
22765;DHT22;11549;50.852;3.816;2023-07-31T10:49:45;20.40;99.90
22765;DHT22;11549;50.852;3.816;2023-07-31T10:52:19;20.40;99.90
22765;DHT22;11549;50.852;3.816;2023-07-31T10:55:28;20.30;99.90
22765;DHT22;11549;50.852;3.816;2023-07-31T10:57:58;20.40;99.90
22765;DHT22;11549;50.852;3.816;2023-07-31T11:00:28;20.30;99.90
22765;DHT22;11549;50.852;3.816;2023-07-31T11:03:00;20.40;99.90
22765;DHT22;11549;50.852;3.816;2023-07-31T11:05:43;20.40;99.90
22765;DHT22;11549;50.852;3.816;2023-07-31T11:08:13;20.30;99.90
22765;DHT22;11549;50.852;3.816;2023-07-31T11:10:44;20.20;99.90
22765;DHT22;11549;50.852;3.816;2023-07-31T11:13:12;20.10;99.90
22765;DHT22;11549;50.852;3.816;2023-07-31T11:15:41;20.10;99.90
22765;DHT22;11549;50.852;3.816;2023-07-31T11:18:09;20.10;99.90
22765;DHT22;11549;50.852;3.816;2023-07-31T11:20:38;20.20;99.90
22765;DHT22;11549;50.852;3.816;2023-07-31T11:23:09;20.20;99.90
22765;DHT22;11549;50.852;3.816;2023-07-31T11:25:38;20.20;99.90
22765;DHT22;11549;50.852;3.816;2023-07-31T11:28:13;20.20;99.90
22765;DHT22;11549;50.852;3.816;2023-07-31T11:30:43;20.20;99.90
22765;DHT22;11549;50.852;3.816;2023-07-31T11:33:13;20.20;99.90
22765;DHT22;11549;50.852;3.816;2023-07-31T11:35:45;20.30;99.90
22765;DHT22;11549;50.852;3.816;2023-07-31T11:38:22;20.30;99.90
22765;DHT22;11549;50.852;3.816;2023-07-31T11:40:51;20.30;99.90
22765;DHT22;11549;50.852;3.816;2023-07-31T11:43:22;20.20;99.90
22765;DHT22;11549;50.852;3.816;2023-07-31T11:45:51;20.30;99.90
22765;DHT22;11549;50.852;3.816;2023-07-31T11:48:21;20.40;99.90
22765;DHT22;11549;50.852;3.816;2023-07-31T11:50:51;20.40;99.90
22765;DHT22;11549;50.852;3.816;2023-07-31T11:53:26;20.50;99.90
22765;DHT22;11549;50.852;3.816;2023-07-31T11:55:56;20.40;99.90
22765;DHT22;11549;50.852;3.816;2023-07-31T11:58:27;20.50;99.90
22765;DHT22;11549;50.852;3.816;2023-07-31T12:00:57;20.50;99.90
22765;DHT22;11549;50.852;3.816;2023-07-31T12:03:26;20.50;99.90
22765;DHT22;11549;50.852;3.816;2023-07-31T12:05:55;20.50;99.90
22765;DHT22;11549;50.852;3.816;2023-07-31T12:08:24;20.50;99.90
22765;DHT22;11549;50.852;3.816;2023-07-31T12:10:53;20.40;99.90
22765;DHT22;11549;50.852;3.816;2023-07-31T12:13:23;20.30;99.90
22765;DHT22;11549;50.852;3.816;2023-07-31T12:15:57;20.40;99.90
22765;DHT22;11549;50.852;3.816;2023-07-31T12:18:27;20.40;99.90
22765;DHT22;11549;50.852;3.816;2023-07-31T12:20:56;20.50;99.90
22765;DHT22;11549;50.852;3.816;2023-07-31T12:23:26;20.50;99.90
22765;DHT22;11549;50.852;3.816;2023-07-31T12:26:02;20.50;99.90
22765;DHT22;11549;50.852;3.816;2023-07-31T12:28:35;20.40;99.90
22765;DHT22;11549;50.852;3.816;2023-07-31T12:31:05;20.40;99.90
22765;DHT22;11549;50.852;3.816;2023-07-31T12:33:35;20.20;99.90
22765;DHT22;11549;50.852;3.816;2023-07-31T12:36:08;20.10;99.90
22765;DHT22;11549;50.852;3.816;2023-07-31T12:38:36;20.10;99.90
22765;DHT22;11549;50.852;3.816;2023-07-31T12:41:05;20.00;99.90
22765;DHT22;11549;50.852;3.816;2023-07-31T12:43:34;20.00;99.90
22765;DHT22;11549;50.852;3.816;2023-07-31T12:46:03;19.90;99.90
22765;DHT22;11549;50.852;3.816;2023-07-31T12:48:32;20.00;99.90
22765;DHT22;11549;50.852;3.816;2023-07-31T12:51:01;20.00;99.90
22765;DHT22;11549;50.852;3.816;2023-07-31T12:53:30;19.90;99.90
22765;DHT22;11549;50.852;3.816;2023-07-31T12:55:58;19.80;99.90
22765;DHT22;11549;50.852;3.816;2023-07-31T12:58:26;19.70;99.90
22765;DHT22;11549;50.852;3.816;2023-07-31T13:00:55;19.70;99.90
22765;DHT22;11549;50.852;3.816;2023-07-31T13:03:23;19.60;99.90
22765;DHT22;11549;50.852;3.816;2023-07-31T13:05:54;19.50;99.90
22765;DHT22;11549;50.852;3.816;2023-07-31T13:08:22;19.50;99.90
22765;DHT22;11549;50.852;3.816;2023-07-31T13:10:51;19.50;99.90
22765;DHT22;11549;50.852;3.816;2023-07-31T13:13:19;19.40;99.90
22765;DHT22;11549;50.852;3.816;2023-07-31T13:15:48;19.40;99.90
22765;DHT22;11549;50.852;3.816;2023-07-31T13:18:16;19.30;99.90
22765;DHT22;11549;50.852;3.816;2023-07-31T13:20:45;19.10;99.90
22765;DHT22;11549;50.852;3.816;2023-07-31T13:23:14;19.10;99.90
22765;DHT22;11549;50.852;3.816;2023-07-31T13:25:43;19.10;99.90
22765;DHT22;11549;50.852;3.816;2023-07-31T13:28:11;19.20;99.90
22765;DHT22;11549;50.852;3.816;2023-07-31T13:30:40;19.20;99.90
22765;DHT22;11549;50.852;3.816;2023-07-31T13:33:08;19.10;99.90
22765;DHT22;11549;50.852;3.816;2023-07-31T13:35:55;19.10;99.90
22765;DHT22;11549;50.852;3.816;2023-07-31T13:38:25;19.10;99.90
22765;DHT22;11549;50.852;3.816;2023-07-31T13:40:55;19.00;99.90
22765;DHT22;11549;50.852;3.816;2023-07-31T13:43:24;19.10;99.90
22765;DHT22;11549;50.852;3.816;2023-07-31T13:45:52;19.10;99.90
22765;DHT22;11549;50.852;3.816;2023-07-31T13:48:20;19.00;99.90
22765;DHT22;11549;50.852;3.816;2023-07-31T13:50:49;19.10;99.90
22765;DHT22;11549;50.852;3.816;2023-07-31T13:53:17;19.20;99.90
22765;DHT22;11549;50.852;3.816;2023-07-31T13:55:47;19.20;99.90
22765;DHT22;11549;50.852;3.816;2023-07-31T13:58:17;19.20;99.90
22765;DHT22;11549;50.852;3.816;2023-07-31T14:00:45;19.20;99.90
22765;DHT22;11549;50.852;3.816;2023-07-31T14:03:14;19.30;99.90
22765;DHT22;11549;50.852;3.816;2023-07-31T14:05:42;19.40;99.90
22765;DHT22;11549;50.852;3.816;2023-07-31T14:08:11;19.40;99.90
22765;DHT22;11549;50.852;3.816;2023-07-31T14:10:40;19.30;99.90
22765;DHT22;11549;50.852;3.816;2023-07-31T14:13:09;19.40;99.90
22765;DHT22;11549;50.852;3.816;2023-07-31T14:15:39;19.40;99.90
22765;DHT22;11549;50.852;3.816;2023-07-31T14:18:07;19.40;99.90
22765;DHT22;11549;50.852;3.816;2023-07-31T14:20:36;19.40;99.90
22765;DHT22;11549;50.852;3.816;2023-07-31T14:23:04;19.40;99.90
22765;DHT22;11549;50.852;3.816;2023-07-31T14:25:32;19.40;99.90
22765;DHT22;11549;50.852;3.816;2023-07-31T14:28:01;19.40;99.90
22765;DHT22;11549;50.852;3.816;2023-07-31T14:30:31;19.40;99.90
22765;DHT22;11549;50.852;3.816;2023-07-31T14:33:00;19.40;99.90
22765;DHT22;11549;50.852;3.816;2023-07-31T14:35:29;19.30;99.90
22765;DHT22;11549;50.852;3.816;2023-07-31T14:37:58;19.30;99.90
22765;DHT22;11549;50.852;3.816;2023-07-31T14:40:26;19.20;99.90
22765;DHT22;11549;50.852;3.816;2023-07-31T14:42:54;19.20;99.90
22765;DHT22;11549;50.852;3.816;2023-07-31T14:45:23;19.20;99.90
22765;DHT22;11549;50.852;3.816;2023-07-31T14:47:53;19.10;99.90
22765;DHT22;11549;50.852;3.816;2023-07-31T14:50:21;19.20;99.90
22765;DHT22;11549;50.852;3.816;2023-07-31T14:52:50;19.20;99.90
22765;DHT22;11549;50.852;3.816;2023-07-31T14:55:18;19.20;99.90
22765;DHT22;11549;50.852;3.816;2023-07-31T14:57:47;19.20;99.90
22765;DHT22;11549;50.852;3.816;2023-07-31T15:00:16;19.20;99.90
22765;DHT22;11549;50.852;3.816;2023-07-31T15:02:44;19.20;99.90
22765;DHT22;11549;50.852;3.816;2023-07-31T15:05:14;19.20;99.90
22765;DHT22;11549;50.852;3.816;2023-07-31T15:07:42;19.20;99.90
22765;DHT22;11549;50.852;3.816;2023-07-31T15:10:11;19.20;99.90
22765;DHT22;11549;50.852;3.816;2023-07-31T15:12:41;19.20;99.90
22765;DHT22;11549;50.852;3.816;2023-07-31T15:15:10;19.30;99.90
22765;DHT22;11549;50.852;3.816;2023-07-31T15:17:39;19.30;99.90
22765;DHT22;11549;50.852;3.816;2023-07-31T15:20:09;19.20;99.90
22765;DHT22;11549;50.852;3.816;2023-07-31T15:22:39;19.20;99.90
22765;DHT22;11549;50.852;3.816;2023-07-31T15:25:08;19.20;99.90
22765;DHT22;11549;50.852;3.816;2023-07-31T15:27:36;19.10;99.90
22765;DHT22;11549;50.852;3.816;2023-07-31T15:30:06;19.20;99.90
22765;DHT22;11549;50.852;3.816;2023-07-31T15:32:37;19.10;99.90
22765;DHT22;11549;50.852;3.816;2023-07-31T15:35:06;19.20;99.90
22765;DHT22;11549;50.852;3.816;2023-07-31T15:37:35;19.10;99.90
22765;DHT22;11549;50.852;3.816;2023-07-31T15:40:06;19.10;99.90
22765;DHT22;11549;50.852;3.816;2023-07-31T15:42:34;19.10;99.90
22765;DHT22;11549;50.852;3.816;2023-07-31T15:45:08;19.00;99.90